createdAt,value
2022-08-19T00:02:01.580Z,13.45
2022-08-19T00:04:33.889Z,14.27
2022-08-19T00:07:04.755Z,12.75
2022-08-19T00:09:33.638Z,12.60
2022-08-19T00:12:02.660Z,13.43
2022-08-19T00:14:33.170Z,13.18
2022-08-19T00:17:02.280Z,13.02
2022-08-19T00:19:31.230Z,12.18
2022-08-19T00:21:59.973Z,13.45
2022-08-19T00:24:29.988Z,14.10
2022-08-19T00:27:25.060Z,13.70
2022-08-19T00:29:47.198Z,13.32
2022-08-19T00:32:21.815Z,12.95
2022-08-19T00:34:50.221Z,12.05
2022-08-19T00:37:19.008Z,13.25
2022-08-19T00:39:49.212Z,12.90
2022-08-19T00:42:17.879Z,13.02
2022-08-19T00:44:46.453Z,13.43
2022-08-19T00:47:16.169Z,12.98
2022-08-19T00:49:52.146Z,13.13
2022-08-19T00:52:28.064Z,12.90
2022-08-19T00:54:59.513Z,13.13
2022-08-19T00:57:34.557Z,13.20
2022-08-19T01:00:06.649Z,12.93
2022-08-19T01:02:35.382Z,13.70
2022-08-19T01:05:10.885Z,13.70
2022-08-19T01:07:41.525Z,13.15
2022-08-19T01:10:16.420Z,12.77
2022-08-19T01:12:45.380Z,13.38
2022-08-19T01:15:17.759Z,13.15
2022-08-19T01:17:47.857Z,11.85
2022-08-19T01:20:21.120Z,11.85
2022-08-19T01:22:54.962Z,13.40
2022-08-19T01:25:29.361Z,13.70
2022-08-19T01:28:09.890Z,13.70
2022-08-19T01:30:39.611Z,13.18
2022-08-19T01:33:12.962Z,13.55
2022-08-19T01:35:42.159Z,13.70
2022-08-19T01:38:21.369Z,13.15
2022-08-19T01:40:50.297Z,13.80
2022-08-19T01:43:19.982Z,13.45
2022-08-19T01:45:48.799Z,14.07
2022-08-19T01:48:17.510Z,13.07
2022-08-19T01:50:46.221Z,13.98
2022-08-19T01:53:16.198Z,14.20
2022-08-19T01:55:46.134Z,14.02
2022-08-19T01:58:21.496Z,13.25
2022-08-19T02:00:50.477Z,13.27
2022-08-19T02:03:19.233Z,12.70
2022-08-19T02:05:47.902Z,13.85
2022-08-19T02:08:17.749Z,13.02
2022-08-19T02:10:46.811Z,13.43
2022-08-19T02:13:15.621Z,14.27
2022-08-19T02:15:49.603Z,12.20
2022-08-19T02:18:18.060Z,13.93
2022-08-19T02:20:48.520Z,15.27
2022-08-19T02:23:19.204Z,13.55
2022-08-19T02:25:50.145Z,14.02
2022-08-19T02:28:19.077Z,13.50
2022-08-19T02:30:49.776Z,14.63
2022-08-19T02:33:19.029Z,14.38
2022-08-19T02:35:49.000Z,14.40
2022-08-19T02:38:26.893Z,14.20
2022-08-19T02:40:58.582Z,13.82
2022-08-19T02:43:28.519Z,13.85
2022-08-19T02:45:57.014Z,14.25
2022-08-19T02:48:27.452Z,14.02
2022-08-19T02:51:02.494Z,13.55
2022-08-19T02:53:32.412Z,13.90
2022-08-19T02:56:00.822Z,13.57
2022-08-19T02:58:29.205Z,13.75
2022-08-19T03:00:59.423Z,14.95
2022-08-19T03:03:28.437Z,14.57
2022-08-19T03:06:09.042Z,13.23
2022-08-19T03:08:39.808Z,13.30
2022-08-19T03:11:08.663Z,13.68
2022-08-19T03:13:37.021Z,14.48
2022-08-19T03:16:07.783Z,14.75
2022-08-19T03:18:36.177Z,15.00
2022-08-19T03:21:05.264Z,15.38
2022-08-19T03:23:34.699Z,14.55
2022-08-19T03:26:16.400Z,14.13
2022-08-19T03:28:58.335Z,15.15
2022-08-19T03:31:45.663Z,14.98
2022-08-19T03:34:27.149Z,15.25
2022-08-19T03:37:06.680Z,14.82
2022-08-19T03:39:35.494Z,13.50
2022-08-19T03:42:32.263Z,14.43
2022-08-19T03:45:11.429Z,13.60
2022-08-19T03:47:42.852Z,13.73
2022-08-19T03:50:11.809Z,12.93
2022-08-19T03:52:40.589Z,13.15
2022-08-19T03:55:14.260Z,13.63
2022-08-19T03:57:44.019Z,13.35
2022-08-19T04:00:14.395Z,12.10
2022-08-19T04:02:58.462Z,13.25
2022-08-19T04:05:30.482Z,13.13
2022-08-19T04:08:00.063Z,13.45
2022-08-19T04:10:29.615Z,12.75
2022-08-19T04:12:59.474Z,12.27
2022-08-19T04:15:29.769Z,12.50
2022-08-19T04:17:58.142Z,13.02
2022-08-19T04:20:26.519Z,12.13
2022-08-19T04:22:55.004Z,12.85
2022-08-19T04:25:23.497Z,12.30
2022-08-19T04:27:51.965Z,12.98
2022-08-19T04:30:23.522Z,12.63
2022-08-19T04:32:52.117Z,11.48
2022-08-19T04:35:24.441Z,13.13
2022-08-19T04:37:53.446Z,11.68
2022-08-19T04:40:39.536Z,11.43
2022-08-19T04:43:08.062Z,12.27
2022-08-19T04:45:43.740Z,12.07
2022-08-19T04:48:27.163Z,11.18
2022-08-19T04:50:59.475Z,12.68
2022-08-19T04:53:29.625Z,12.80
2022-08-19T04:56:09.649Z,11.38
2022-08-19T04:58:42.727Z,11.80
2022-08-19T05:01:15.196Z,11.93
2022-08-19T05:03:43.954Z,12.18
2022-08-19T05:06:15.558Z,11.88
2022-08-19T05:08:46.193Z,11.20
2022-08-19T05:11:19.107Z,11.93
2022-08-19T05:13:50.525Z,10.63
2022-08-19T05:16:22.810Z,11.85
2022-08-19T05:19:09.822Z,10.82
2022-08-19T05:22:01.325Z,10.50
2022-08-19T05:24:30.565Z,10.95
2022-08-19T05:26:59.760Z,11.25
2022-08-19T05:29:29.984Z,10.93
2022-08-19T05:32:09.270Z,11.07
2022-08-19T05:34:38.984Z,11.10
2022-08-19T05:37:09.285Z,11.90
2022-08-19T05:39:39.457Z,11.30
2022-08-19T05:42:12.365Z,11.25
2022-08-19T05:44:44.253Z,11.52
2022-08-19T05:47:15.790Z,11.73
2022-08-19T05:49:45.074Z,11.20
2022-08-19T05:52:16.438Z,11.93
2022-08-19T05:54:51.012Z,11.40
2022-08-19T05:57:20.766Z,11.07
2022-08-19T05:59:53.276Z,10.93
2022-08-19T06:02:28.508Z,11.18
2022-08-19T06:04:56.976Z,11.32
2022-08-19T06:07:25.571Z,12.02
2022-08-19T06:10:00.159Z,12.27
2022-08-19T06:12:32.639Z,11.18
2022-08-19T06:15:02.397Z,12.00
2022-08-19T06:17:32.739Z,11.65
2022-08-19T06:20:01.300Z,12.35
2022-08-19T06:22:30.366Z,10.82
2022-08-19T06:24:58.795Z,11.95
2022-08-19T06:27:27.164Z,12.13
2022-08-19T06:29:55.520Z,11.48
2022-08-19T06:32:23.911Z,10.85
2022-08-19T06:34:53.660Z,11.93
2022-08-19T06:37:22.749Z,11.48
2022-08-19T06:39:52.113Z,10.50
2022-08-19T06:42:21.739Z,10.02
2022-08-19T06:44:53.533Z,10.65
2022-08-19T06:47:26.521Z,9.48
2022-08-19T06:50:03.732Z,11.55
2022-08-19T06:55:06.229Z,10.63
2022-08-19T06:57:36.384Z,10.13
2022-08-19T07:00:13.041Z,9.95
2022-08-19T07:02:44.685Z,9.70
2022-08-19T07:05:18.953Z,10.63
2022-08-19T07:07:48.796Z,9.77
2022-08-19T07:10:20.173Z,9.88
2022-08-19T07:12:48.601Z,10.10
2022-08-19T07:15:17.212Z,9.85
2022-08-19T07:17:49.320Z,9.00
2022-08-19T07:20:22.836Z,8.47
2022-08-19T07:22:57.251Z,6.93
2022-08-19T07:25:32.258Z,7.82
2022-08-19T07:28:01.828Z,7.75
2022-08-19T07:30:30.424Z,8.10
2022-08-19T07:33:00.204Z,7.15
2022-08-19T07:35:34.504Z,6.80
2022-08-19T07:38:04.689Z,7.65
2022-08-19T07:40:33.290Z,7.10
2022-08-19T07:43:01.977Z,7.10
2022-08-19T07:45:30.485Z,6.53
2022-08-19T07:47:59.465Z,7.18
2022-08-19T07:50:28.044Z,6.30
2022-08-19T07:52:57.987Z,7.10
2022-08-19T07:55:41.794Z,6.65
2022-08-19T07:58:15.112Z,5.90
2022-08-19T08:00:44.612Z,6.05
2022-08-19T08:03:13.572Z,6.43
2022-08-19T08:06:00.052Z,6.20
2022-08-19T08:08:48.580Z,5.85
2022-08-19T08:11:20.736Z,4.50
2022-08-19T08:14:00.760Z,5.25
2022-08-19T08:16:35.721Z,6.10
2022-08-19T08:19:20.280Z,6.43
2022-08-19T08:21:52.688Z,5.70
2022-08-19T08:24:22.461Z,5.82
2022-08-19T08:26:57.792Z,5.32
2022-08-19T08:29:26.764Z,5.60
2022-08-19T08:32:03.389Z,5.97
2022-08-19T08:34:31.865Z,5.20
2022-08-19T08:37:00.368Z,5.03
2022-08-19T08:39:30.427Z,5.38
2022-08-19T08:42:17.785Z,6.05
2022-08-19T08:47:40.933Z,5.80
2022-08-19T08:50:15.634Z,5.82
2022-08-19T08:52:49.019Z,5.95
2022-08-19T08:55:24.741Z,5.45
2022-08-19T08:58:01.147Z,5.70
2022-08-19T09:00:34.940Z,5.18
2022-08-19T09:03:06.525Z,5.60
2022-08-19T09:05:50.385Z,4.30
2022-08-19T09:08:28.536Z,5.25
2022-08-19T09:10:59.364Z,4.82
2022-08-19T09:13:38.325Z,4.05
2022-08-19T09:16:12.431Z,5.68
2022-08-19T09:18:44.884Z,4.55
2022-08-19T09:21:14.109Z,4.45
2022-08-19T09:23:44.270Z,3.92
2022-08-19T09:26:17.749Z,4.30
2022-08-19T09:28:51.785Z,3.55
2022-08-19T09:31:22.860Z,4.85
2022-08-19T09:33:53.343Z,3.85
2022-08-19T09:36:34.500Z,4.50
2022-08-19T09:39:04.684Z,4.78
2022-08-19T09:41:47.262Z,4.55
2022-08-19T09:44:16.193Z,3.80
2022-08-19T09:46:44.806Z,4.10
2022-08-19T09:49:13.475Z,4.45
2022-08-19T09:51:41.861Z,3.40
2022-08-19T09:54:11.437Z,3.78
2022-08-19T09:56:40.000Z,3.67
2022-08-19T09:59:13.047Z,4.28
2022-08-19T10:01:41.790Z,3.72
2022-08-19T10:04:19.956Z,5.13
2022-08-19T10:06:51.799Z,6.03
2022-08-19T10:09:34.016Z,6.68
2022-08-19T10:12:04.081Z,6.82
2022-08-19T10:14:33.973Z,4.68
2022-08-19T10:17:19.835Z,5.55
2022-08-19T10:19:55.521Z,5.65
2022-08-19T10:22:25.668Z,5.20
2022-08-19T10:24:55.293Z,4.38
2022-08-19T10:27:23.904Z,4.07
2022-08-19T10:29:56.398Z,4.15
2022-08-19T10:32:32.036Z,4.45
2022-08-19T10:35:05.457Z,4.30
2022-08-19T10:37:35.259Z,4.70
2022-08-19T10:40:05.688Z,4.60
2022-08-19T10:42:34.333Z,4.78
2022-08-19T10:45:05.060Z,4.10
2022-08-19T10:47:33.697Z,3.90
2022-08-19T10:50:19.257Z,4.45
2022-08-19T10:52:51.005Z,4.45
2022-08-19T10:55:45.488Z,4.72
2022-08-19T10:58:15.892Z,3.75
2022-08-19T11:00:54.080Z,3.85
2022-08-19T11:03:22.902Z,3.50
2022-08-19T11:06:01.295Z,4.20
2022-08-19T11:08:31.672Z,4.38
2022-08-19T11:11:04.166Z,4.25
2022-08-19T11:13:36.712Z,4.88
2022-08-19T11:16:09.516Z,3.78
2022-08-19T11:18:39.582Z,3.65
2022-08-19T11:21:10.877Z,4.20
2022-08-19T11:23:39.616Z,4.25
2022-08-19T11:26:08.080Z,4.60
2022-08-19T11:28:36.816Z,4.30
2022-08-19T11:31:11.014Z,4.10
2022-08-19T11:33:39.768Z,4.18
2022-08-19T11:36:08.936Z,4.18
2022-08-19T11:38:38.760Z,4.05
2022-08-19T11:41:09.475Z,3.53
2022-08-19T11:43:40.557Z,4.07
2022-08-19T11:46:13.873Z,3.47
2022-08-19T11:48:43.065Z,4.30
2022-08-19T11:51:16.660Z,4.00
2022-08-19T11:53:45.629Z,4.17
2022-08-19T11:56:14.856Z,4.03
2022-08-19T11:58:44.559Z,3.38
2022-08-19T12:01:17.540Z,3.00
2022-08-19T12:03:47.513Z,3.40
2022-08-19T12:06:20.538Z,3.90
2022-08-19T12:08:49.422Z,2.95
2022-08-19T12:11:18.071Z,2.85
2022-08-19T12:13:47.342Z,2.85
2022-08-19T12:16:20.184Z,3.00
2022-08-19T12:18:49.383Z,3.05
2022-08-19T12:21:22.138Z,2.80
2022-08-19T12:23:55.687Z,3.17
2022-08-19T12:26:25.525Z,3.53
2022-08-19T12:28:54.578Z,3.47
2022-08-19T12:31:24.436Z,3.65
2022-08-19T12:33:53.280Z,3.10
2022-08-19T12:36:22.934Z,3.22
2022-08-19T12:38:51.493Z,3.13
2022-08-19T12:41:23.164Z,2.75
2022-08-19T12:43:52.105Z,2.75
2022-08-19T12:46:23.781Z,2.92
2022-08-19T12:48:56.091Z,2.95
2022-08-19T12:51:26.200Z,2.38
2022-08-19T12:53:54.626Z,2.45
2022-08-19T12:56:23.507Z,2.67
2022-08-19T12:58:52.877Z,2.80
2022-08-19T13:01:23.569Z,2.25
2022-08-19T13:03:54.145Z,2.65
2022-08-19T13:06:22.573Z,2.22
2022-08-19T13:08:51.081Z,2.95
2022-08-19T13:11:25.254Z,2.83
2022-08-19T13:13:56.329Z,2.40
2022-08-19T13:16:28.468Z,2.58
2022-08-19T13:18:58.213Z,2.97
2022-08-19T13:21:30.850Z,3.15
2022-08-19T13:23:59.406Z,3.20
2022-08-19T13:26:27.828Z,2.58
2022-08-19T13:29:13.929Z,3.13
2022-08-19T13:32:01.764Z,3.25
2022-08-19T13:34:36.007Z,2.85
2022-08-19T13:37:06.553Z,3.08
2022-08-19T13:39:36.411Z,2.92
2022-08-19T13:42:06.547Z,2.47
2022-08-19T13:44:35.058Z,3.20
2022-08-19T13:47:07.937Z,3.17
2022-08-19T13:49:38.069Z,2.90
2022-08-19T13:52:07.791Z,2.65
2022-08-19T13:54:36.120Z,2.70
2022-08-19T13:57:05.014Z,3.50
2022-08-19T13:59:34.028Z,2.55
2022-08-19T14:02:06.410Z,3.42
2022-08-19T14:04:34.944Z,2.80
2022-08-19T14:07:04.336Z,2.90
2022-08-19T14:09:32.921Z,3.25
2022-08-19T14:12:01.484Z,3.20
2022-08-19T14:14:30.057Z,3.40
2022-08-19T14:16:58.421Z,2.88
2022-08-19T14:19:30.001Z,2.92
2022-08-19T14:21:59.547Z,3.00
2022-08-19T14:24:28.031Z,3.25
2022-08-19T14:26:56.486Z,2.78
2022-08-19T14:29:24.883Z,2.88
2022-08-19T14:31:53.306Z,2.83
2022-08-19T14:34:21.746Z,2.92
2022-08-19T14:36:51.580Z,3.15
2022-08-19T14:39:20.172Z,2.63
2022-08-19T14:41:48.541Z,2.85
2022-08-19T14:44:17.025Z,2.75
2022-08-19T14:46:49.687Z,2.17
2022-08-19T14:49:18.932Z,2.10
2022-08-19T14:51:48.613Z,2.20
2022-08-19T14:54:18.437Z,1.88
2022-08-19T14:56:46.954Z,2.22
2022-08-19T14:59:15.552Z,2.72
2022-08-19T15:01:44.302Z,2.92
2022-08-19T15:04:12.736Z,3.13
2022-08-19T15:06:43.311Z,2.03
2022-08-19T15:09:12.219Z,2.13
2022-08-19T15:11:41.954Z,2.30
2022-08-19T15:14:10.966Z,1.98
2022-08-19T15:16:42.600Z,1.90
2022-08-19T15:19:11.377Z,1.70
2022-08-19T15:21:39.898Z,2.10
2022-08-19T15:24:10.085Z,2.40
2022-08-19T15:26:38.661Z,3.00
2022-08-19T15:29:09.193Z,2.15
2022-08-19T15:31:37.962Z,2.15
2022-08-19T15:34:07.710Z,2.03
2022-08-19T15:36:36.544Z,3.42
2022-08-19T15:39:07.407Z,2.00
2022-08-19T15:41:37.126Z,2.40
2022-08-19T15:44:13.206Z,2.35
2022-08-19T15:46:45.310Z,2.33
2022-08-19T15:49:16.072Z,1.98
2022-08-19T15:51:47.538Z,2.28
2022-08-19T15:54:21.594Z,2.95
2022-08-19T15:57:08.603Z,3.10
2022-08-19T15:59:59.989Z,2.90
2022-08-19T16:02:53.519Z,2.53
2022-08-19T16:05:44.482Z,2.58
2022-08-19T16:08:13.397Z,2.40
2022-08-19T16:10:41.922Z,2.63
2022-08-19T16:13:10.852Z,2.70
2022-08-19T16:15:44.929Z,2.70
2022-08-19T16:18:13.635Z,2.60
2022-08-19T16:20:42.133Z,2.42
2022-08-19T16:23:10.568Z,2.30
2022-08-19T16:25:39.333Z,2.45
2022-08-19T16:28:09.751Z,2.90
2022-08-19T16:30:42.840Z,2.50
2022-08-19T16:33:22.669Z,3.10
2022-08-19T16:35:56.079Z,2.90
2022-08-19T16:38:29.790Z,3.30
2022-08-19T16:41:00.485Z,2.88
2022-08-19T16:43:31.913Z,2.60
2022-08-19T16:46:02.474Z,2.97
2022-08-19T16:48:32.924Z,2.83
2022-08-19T16:51:02.640Z,2.90
2022-08-19T16:53:32.068Z,2.95
2022-08-19T16:56:01.520Z,3.10
2022-08-19T16:58:33.988Z,3.88
2022-08-19T17:01:07.566Z,3.67
2022-08-19T17:03:37.664Z,3.65
2022-08-19T17:06:20.355Z,3.60
2022-08-19T17:08:50.158Z,4.03
2022-08-19T17:11:19.834Z,4.15
2022-08-19T17:13:49.395Z,3.88
2022-08-19T17:16:22.064Z,3.63
2022-08-19T17:18:52.817Z,3.92
2022-08-19T17:21:21.745Z,4.10
2022-08-19T17:23:50.628Z,3.92
2022-08-19T17:26:19.821Z,4.03
2022-08-19T17:28:50.213Z,4.05
2022-08-19T17:31:23.948Z,3.95
2022-08-19T17:33:52.861Z,4.03
2022-08-19T17:36:26.294Z,3.83
2022-08-19T17:38:56.631Z,4.45
2022-08-19T17:41:25.693Z,3.97
2022-08-19T17:43:54.437Z,4.03
2022-08-19T17:46:24.310Z,3.80
2022-08-19T17:48:57.628Z,4.32
2022-08-19T17:51:42.196Z,4.47
2022-08-19T17:54:15.200Z,4.07
2022-08-19T17:56:46.198Z,4.25
2022-08-19T17:59:15.654Z,4.68
2022-08-19T18:01:53.930Z,3.90
2022-08-19T18:04:24.789Z,4.25
2022-08-19T18:06:54.907Z,4.10
2022-08-19T18:09:26.244Z,4.68
2022-08-19T18:11:56.781Z,4.03
2022-08-19T18:14:33.787Z,4.55
2022-08-19T18:17:09.468Z,4.68
2022-08-19T18:19:42.188Z,4.30
2022-08-19T18:22:26.676Z,4.07
2022-08-19T18:24:56.079Z,4.07
2022-08-19T18:27:24.846Z,4.10
2022-08-19T18:29:56.633Z,4.32
2022-08-19T18:32:27.421Z,4.13
2022-08-19T18:34:56.131Z,4.43
2022-08-19T18:37:26.656Z,4.70
2022-08-19T18:40:12.944Z,4.63
2022-08-19T18:43:02.166Z,4.18
2022-08-19T18:45:48.337Z,4.35
2022-08-19T18:48:35.631Z,4.57
2022-08-19T18:51:04.561Z,3.90
2022-08-19T18:53:37.655Z,4.47
2022-08-19T18:56:06.609Z,4.88
2022-08-19T18:58:35.981Z,4.63
2022-08-19T19:01:10.774Z,4.65
2022-08-19T19:03:45.244Z,4.50
2022-08-19T19:06:16.089Z,4.28
2022-08-19T19:08:44.588Z,4.30
2022-08-19T19:11:13.309Z,4.32
2022-08-19T19:13:42.145Z,4.63
2022-08-19T19:16:11.570Z,4.15
2022-08-19T19:18:42.534Z,3.75
2022-08-19T19:21:11.692Z,4.57
2022-08-19T19:23:42.360Z,4.28
2022-08-19T19:26:11.829Z,4.50
2022-08-19T19:28:48.044Z,4.10
2022-08-19T19:31:22.741Z,3.97
2022-08-19T19:36:21.341Z,4.43
2022-08-19T19:38:49.796Z,4.63
2022-08-19T19:41:23.361Z,4.72
2022-08-19T19:44:10.103Z,4.88
2022-08-19T19:46:42.372Z,4.00
2022-08-19T19:49:13.353Z,4.80
2022-08-19T19:51:43.361Z,4.28
2022-08-19T19:54:14.649Z,4.95
2022-08-19T19:56:45.050Z,4.65
2022-08-19T19:59:13.974Z,5.13
2022-08-19T20:01:46.857Z,4.80
2022-08-19T20:04:18.316Z,5.35
2022-08-19T20:06:47.816Z,5.22
2022-08-19T20:09:19.709Z,5.35
2022-08-19T20:11:53.498Z,5.72
2022-08-19T20:14:25.169Z,5.60
2022-08-19T20:16:55.636Z,5.57
2022-08-19T20:19:28.227Z,5.53
2022-08-19T20:21:57.628Z,5.13
2022-08-19T20:24:33.096Z,5.60
2022-08-19T20:27:02.529Z,5.47
2022-08-19T20:29:39.059Z,5.22
2022-08-19T20:32:10.014Z,5.45
2022-08-19T20:34:41.043Z,5.63
2022-08-19T20:37:09.861Z,5.70
2022-08-19T20:39:38.699Z,5.95
2022-08-19T20:42:07.504Z,5.28
2022-08-19T20:44:36.301Z,5.90
2022-08-19T20:47:04.852Z,5.43
2022-08-19T20:49:33.488Z,5.38
2022-08-19T20:52:06.240Z,5.15
2022-08-19T20:54:34.726Z,6.15
2022-08-19T20:57:05.359Z,5.72
2022-08-19T20:59:34.377Z,6.20
2022-08-19T21:02:02.726Z,5.25
2022-08-19T21:04:31.144Z,5.70
2022-08-19T21:06:59.853Z,5.10
2022-08-19T21:09:29.670Z,5.00
2022-08-19T21:11:58.069Z,4.70
2022-08-19T21:14:26.548Z,6.13
2022-08-19T21:16:55.432Z,5.07
2022-08-19T21:19:24.285Z,4.97
2022-08-19T21:21:53.720Z,4.57
2022-08-19T21:24:26.342Z,4.75
2022-08-19T21:27:01.717Z,4.88
2022-08-19T21:29:32.036Z,4.93
2022-08-19T21:32:00.475Z,4.57
2022-08-19T21:34:29.445Z,4.53
2022-08-19T21:36:57.833Z,4.70
2022-08-19T21:39:26.228Z,4.28
2022-08-19T21:41:54.756Z,4.43
2022-08-19T21:44:24.517Z,4.38
2022-08-19T21:46:52.920Z,4.38
2022-08-19T21:49:21.333Z,4.80
2022-08-19T21:51:50.030Z,4.40
2022-08-19T21:54:18.452Z,4.18
2022-08-19T21:56:47.403Z,5.20
2022-08-19T21:59:16.866Z,4.72
2022-08-19T22:01:51.973Z,4.43
2022-08-19T22:04:25.096Z,4.60
2022-08-19T22:06:55.205Z,3.88
2022-08-19T22:09:23.823Z,4.40
2022-08-19T22:11:52.204Z,3.80
2022-08-19T22:14:20.861Z,3.72
2022-08-19T22:16:50.573Z,4.18
2022-08-19T22:19:18.990Z,2.92
2022-08-19T22:21:47.344Z,3.47
2022-08-19T22:24:15.706Z,3.42
2022-08-19T22:26:44.136Z,3.35
2022-08-19T22:29:15.700Z,3.35
2022-08-19T22:31:46.128Z,3.40
2022-08-19T22:34:24.790Z,3.25
2022-08-19T22:36:53.212Z,2.92
2022-08-19T22:39:21.549Z,3.00
2022-08-19T22:41:49.998Z,3.15
2022-08-19T22:44:18.405Z,3.15
2022-08-19T22:46:46.753Z,2.55
2022-08-19T22:49:15.144Z,2.22
2022-08-19T22:52:02.400Z,2.13
2022-08-19T22:54:31.008Z,2.72
2022-08-19T22:57:00.028Z,2.38
2022-08-19T22:59:28.614Z,2.42
2022-08-19T23:01:57.049Z,2.67
2022-08-19T23:04:25.756Z,2.10
2022-08-19T23:06:55.653Z,2.28
2022-08-19T23:09:24.074Z,1.88
2022-08-19T23:11:53.831Z,1.63
2022-08-19T23:14:22.309Z,2.00
2022-08-19T23:16:51.554Z,1.80
2022-08-19T23:19:22.115Z,2.40
2022-08-19T23:21:50.721Z,2.25
2022-08-19T23:24:20.608Z,1.90
2022-08-19T23:27:07.022Z,2.15
2022-08-19T23:29:53.001Z,1.98
2022-08-19T23:32:23.471Z,1.90
2022-08-19T23:34:51.992Z,1.75
2022-08-19T23:37:20.386Z,2.25
2022-08-19T23:39:52.440Z,2.03
2022-08-19T23:42:21.411Z,2.03
2022-08-19T23:44:51.305Z,1.60
2022-08-19T23:47:21.557Z,2.03
2022-08-19T23:49:50.581Z,2.20
2022-08-19T23:52:19.439Z,2.00
2022-08-19T23:54:48.201Z,1.73
2022-08-19T23:57:18.100Z,2.15
2022-08-19T23:59:46.499Z,1.92
